Skip Navigation Links
NOAA logo - Click to go to the NOAA homepage
NOAA's National Weather Service
Alaska Aviation Weather Unit
  NWS logo - Click to go to the NWS homepage
Left Navbar Graphic     21 AKDT = 05 GMT

   
NOAA is celebrating 200 years of science, service, and stewardship. Visit the NOAA 200th celebration Web site to learn more.
USA.gov is the U.S. Government's official Web portal to all Federal, state and local government Web resources and services.
Facebook
NWS on Facebook

AAWU Home :: Display TAF Add Bookmark
PANV 262316Z AUTO 06004KT 10SM FEW039 10/00 A2953 RMK AO1=

METAR PANV 262336Z AUTO 02006KT 10SM CLR 10/M01 A2952 RMK AO1=

METAR PANV 262356Z AUTO 06004KT 10SM CLR 10/M01 A2952 RMK AO1 10100
     20030 401100010 57007=

METAR PANV 270016Z AUTO 10005KT 10SM BKN075 10/M02 A2952 RMK AO1=

METAR PANV 270036Z AUTO 06005KT 10SM OVC075 11/M01 A2952 RMK AO1=

METAR PANV 270056Z AUTO 10006KT 10SM OVC075 11/M01 A2952 RMK AO1=

METAR PANV 270116Z AUTO 05005KT 10SM BKN085 11/M01 A2951 RMK AO1=

METAR PANV 270136Z AUTO 09006KT 10SM BKN085 11/M02 A2951 RMK AO1=

METAR PANV 270156Z AUTO 07004KT 10SM OVC085 11/M02 A2952 RMK AO1=

METAR PANV 270216Z AUTO 10005KT 10SM BKN085 11/M02 A2952 RMK AO1=

METAR PANV 270236Z AUTO 03004KT 10SM BKN085 11/M01 A2952 RMK AO1=

METAR PANV 270256Z AUTO 06004KT 10SM SCT085 11/M01 A2952 RMK AO1
     54000=

METAR PANV 270316Z AUTO 00000KT 10SM BKN085 11/M02 A2951 RMK AO1=

METAR PANV 270336Z AUTO 05004KT 10SM SCT085 11/M02 A2952 RMK AO1=

METAR PANV 270356Z AUTO 09006KT 10SM CLR 11/M02 A2952 RMK AO1=

METAR PANV 270416Z AUTO 11003KT 10SM CLR 11/M02 A2952 RMK AO1=

METAR PANV 270436Z AUTO 13008G17KT 10SM FEW120 10/M02 A2953 RMK AO1=

METAR PANV 270456Z AUTO 17007KT 10SM SCT090 SCT120 09/M01 A2954 RMK
 AO1=


NOAA's National Weather Service
Alaska Aviation Weather Unit
6930 Sand Lake Road
Anchorage, AK 99502-1845
Disclaimer
Credits
Glossary
Privacy Policy
About Us
Career Opportunities
Contact AAWU Internet Services Site last modified: April, 17th 2012